createdAt,value
2019-02-27T00:01:16.736Z,50.10
2019-02-27T00:03:43.235Z,50.00
2019-02-27T00:06:12.895Z,50.40
2019-02-27T00:08:40.763Z,50.70
2019-02-27T00:11:09.951Z,50.30
2019-02-27T00:13:38.658Z,50.40
2019-02-27T00:16:10.848Z,50.90
2019-02-27T00:18:37.511Z,50.80
2019-02-27T00:21:07.967Z,50.80
2019-02-27T00:23:35.428Z,49.80
2019-02-27T00:26:03.488Z,49.40
2019-02-27T00:28:31.534Z,49.70
2019-02-27T00:30:59.503Z,50.20
2019-02-27T00:33:28.716Z,50.20
2019-02-27T00:35:56.897Z,50.20
2019-02-27T00:38:25.203Z,49.80
2019-02-27T00:40:54.027Z,49.60
2019-02-27T00:43:22.370Z,50.00
2019-02-27T00:45:50.391Z,50.30
2019-02-27T00:48:18.258Z,50.10
2019-02-27T00:50:46.546Z,50.00
2019-02-27T00:53:14.622Z,50.20
2019-02-27T00:55:42.489Z,50.30
2019-02-27T00:58:10.539Z,50.20
2019-02-27T01:00:39.463Z,50.20
2019-02-27T01:03:07.911Z,50.20
2019-02-27T01:05:35.815Z,50.20
2019-02-27T01:08:04.591Z,50.50
2019-02-27T01:10:32.467Z,50.30
2019-02-27T01:13:00.411Z,50.10
2019-02-27T01:15:28.290Z,49.30
2019-02-27T01:17:57.556Z,49.80
2019-02-27T01:20:26.047Z,50.40
2019-02-27T01:22:53.938Z,50.90
2019-02-27T01:25:23.063Z,51.50
2019-02-27T01:27:51.522Z,51.00
2019-02-27T01:30:23.899Z,51.60
2019-02-27T01:32:49.649Z,51.20
2019-02-27T01:35:18.871Z,51.50
2019-02-27T01:37:47.006Z,51.90
2019-02-27T01:40:18.049Z,52.00
2019-02-27T01:42:44.966Z,52.10
2019-02-27T01:45:14.732Z,52.20
2019-02-27T01:47:42.578Z,52.00
2019-02-27T01:50:42.031Z,52.40
2019-02-27T01:53:09.958Z,52.90
2019-02-27T01:55:38.206Z,53.10
2019-02-27T01:58:09.183Z,53.30
2019-02-27T02:00:36.446Z,53.20
2019-02-27T02:03:04.632Z,53.10
2019-02-27T02:05:32.706Z,52.90
2019-02-27T02:08:00.688Z,53.40
2019-02-27T02:10:28.971Z,54.00
2019-02-27T02:13:23.694Z,53.80
2019-02-27T02:16:34.149Z,54.10
2019-02-27T02:19:44.598Z,54.00
2019-02-27T02:22:35.747Z,54.10
2019-02-27T02:25:28.017Z,55.00
2019-02-27T02:28:50.250Z,54.20
2019-02-27T02:31:54.884Z,54.50
2019-02-27T02:34:47.660Z,55.20
2019-02-27T02:37:33.776Z,55.50
2019-02-27T02:40:32.096Z,55.40
2019-02-27T02:43:59.637Z,55.20
2019-02-27T02:46:55.573Z,55.50
2019-02-27T02:49:59.071Z,55.60
2019-02-27T02:53:01.556Z,56.00
2019-02-27T02:55:53.097Z,56.20
2019-02-27T02:58:35.190Z,56.10
2019-02-27T03:01:30.250Z,55.70
2019-02-27T03:04:32.941Z,56.00
2019-02-27T03:07:44.883Z,56.30
2019-02-27T03:10:48.000Z,55.90
2019-02-27T03:13:55.347Z,55.90
2019-02-27T03:16:52.199Z,56.30
2019-02-27T03:20:00.558Z,56.40
2019-02-27T03:23:06.263Z,56.30
2019-02-27T03:26:01.263Z,56.70
2019-02-27T03:29:05.271Z,57.00
2019-02-27T03:32:03.759Z,56.80
2019-02-27T03:35:27.623Z,56.90
2019-02-27T03:38:44.999Z,56.80
2019-02-27T03:42:06.350Z,56.70
2019-02-27T03:45:30.643Z,57.20
2019-02-27T03:48:50.619Z,57.50
2019-02-27T03:52:03.291Z,56.90
2019-02-27T03:55:34.229Z,57.00
2019-02-27T03:58:33.596Z,57.50
2019-02-27T04:01:31.396Z,57.40
2019-02-27T04:04:38.293Z,57.70
2019-02-27T04:07:37.540Z,57.40
2019-02-27T04:10:05.894Z,57.50
2019-02-27T04:12:33.870Z,57.50
2019-02-27T04:15:02.148Z,57.50
2019-02-27T04:17:29.039Z,57.40
2019-02-27T04:19:57.324Z,57.40
2019-02-27T04:22:25.508Z,57.40
2019-02-27T04:24:56.498Z,57.40
2019-02-27T04:27:23.146Z,57.30
2019-02-27T04:29:51.088Z,57.20
2019-02-27T04:32:19.029Z,57.20
2019-02-27T04:34:46.954Z,57.30
2019-02-27T04:37:17.679Z,57.40
2019-02-27T04:39:44.842Z,57.30
2019-02-27T04:42:13.191Z,57.20
2019-02-27T04:44:41.025Z,57.30
2019-02-27T04:47:08.948Z,57.20
2019-02-27T04:49:37.817Z,57.20
2019-02-27T04:52:06.459Z,57.20
2019-02-27T04:54:35.068Z,57.10
2019-02-27T04:57:03.014Z,57.50
2019-02-27T04:59:30.855Z,57.40
2019-02-27T05:01:58.774Z,57.20
2019-02-27T05:04:26.694Z,57.10
2019-02-27T05:06:54.559Z,57.10
2019-02-27T05:09:22.462Z,57.10
2019-02-27T05:11:50.578Z,57.10
2019-02-27T05:14:24.759Z,57.10
2019-02-27T05:16:51.390Z,57.10
2019-02-27T05:19:19.558Z,57.10
2019-02-27T05:21:47.460Z,57.40
2019-02-27T05:24:15.358Z,57.50
2019-02-27T05:26:43.459Z,58.00
2019-02-27T05:29:11.370Z,58.10
2019-02-27T05:31:39.393Z,58.10
2019-02-27T05:34:07.266Z,58.20
2019-02-27T05:36:35.174Z,58.00
2019-02-27T05:39:04.022Z,57.30
2019-02-27T05:41:33.258Z,57.50
2019-02-27T05:44:01.591Z,57.90
2019-02-27T05:46:29.439Z,58.60
2019-02-27T05:48:57.387Z,58.70
2019-02-27T05:51:25.283Z,58.50
2019-02-27T05:53:53.278Z,58.30
2019-02-27T05:56:21.149Z,58.70
2019-02-27T05:58:49.482Z,58.70
2019-02-27T06:01:17.417Z,58.50
2019-02-27T06:03:45.361Z,58.40
2019-02-27T06:06:13.211Z,58.80
2019-02-27T06:08:41.457Z,59.00
2019-02-27T06:11:11.570Z,59.10
2019-02-27T06:13:39.515Z,59.10
2019-02-27T06:16:09.182Z,59.40
2019-02-27T06:18:37.278Z,59.10
2019-02-27T06:21:05.220Z,59.10
2019-02-27T06:23:35.397Z,59.40
2019-02-27T06:26:02.932Z,59.90
2019-02-27T06:28:30.926Z,60.00
2019-02-27T06:30:59.199Z,60.40
2019-02-27T06:33:27.233Z,60.30
2019-02-27T06:35:55.251Z,59.80
2019-02-27T06:38:25.350Z,60.00
2019-02-27T06:40:52.949Z,60.10
2019-02-27T06:43:21.060Z,59.80
2019-02-27T06:45:48.974Z,60.40
2019-02-27T06:48:16.861Z,60.90
2019-02-27T06:50:44.862Z,61.10
2019-02-27T06:53:15.631Z,61.60
2019-02-27T06:55:42.593Z,62.10
2019-02-27T06:58:14.336Z,62.50
2019-02-27T07:00:40.319Z,62.80
2019-02-27T07:03:08.324Z,63.20
2019-02-27T07:05:36.343Z,63.80
2019-02-27T07:08:05.203Z,63.50
2019-02-27T07:10:33.305Z,63.60
2019-02-27T07:13:01.223Z,64.00
2019-02-27T07:15:29.177Z,64.00
2019-02-27T07:17:57.121Z,64.30
2019-02-27T07:20:25.364Z,64.30
2019-02-27T07:22:53.282Z,64.40
2019-02-27T07:25:21.718Z,64.80
2019-02-27T07:27:49.632Z,65.40
2019-02-27T07:30:17.803Z,65.30
2019-02-27T07:32:46.002Z,65.90
2019-02-27T07:35:14.385Z,66.10
2019-02-27T07:37:47.174Z,66.10
2019-02-27T07:40:12.970Z,66.30
2019-02-27T07:42:40.912Z,66.90
2019-02-27T07:45:11.329Z,67.50
2019-02-27T07:47:39.306Z,66.30
2019-02-27T07:50:08.855Z,66.00
2019-02-27T07:52:37.230Z,65.30
2019-02-27T07:55:18.429Z,65.90
2019-02-27T07:57:35.134Z,65.80
2019-02-27T08:00:04.016Z,65.30
2019-02-27T08:02:36.086Z,64.90
2019-02-27T08:05:04.206Z,64.70
2019-02-27T08:07:34.009Z,63.60
2019-02-27T08:10:04.643Z,65.20
2019-02-27T08:12:33.799Z,65.50
2019-02-27T08:15:01.694Z,66.30
2019-02-27T08:17:29.723Z,67.00
2019-02-27T08:19:57.643Z,67.00
2019-02-27T08:22:25.612Z,67.90
2019-02-27T08:24:53.600Z,67.80
2019-02-27T08:27:21.574Z,68.30
2019-02-27T08:29:49.536Z,66.90
2019-02-27T08:32:17.451Z,67.20
2019-02-27T08:34:45.379Z,66.50
2019-02-27T08:37:13.214Z,66.00
2019-02-27T08:39:42.750Z,66.10
2019-02-27T08:42:10.651Z,65.90
2019-02-27T08:44:38.618Z,65.90
2019-02-27T08:47:09.790Z,66.40
2019-02-27T08:49:36.354Z,67.40
2019-02-27T08:52:04.602Z,68.40
2019-02-27T08:54:33.144Z,68.30
2019-02-27T08:57:01.363Z,67.40
2019-02-27T08:59:29.295Z,65.90
2019-02-27T09:01:57.156Z,65.60
2019-02-27T09:04:25.107Z,67.50
2019-02-27T09:06:53.043Z,68.40
2019-02-27T09:09:20.983Z,67.20
2019-02-27T09:11:49.023Z,66.30
2019-02-27T09:14:36.331Z,66.40
2019-02-27T09:17:04.670Z,68.40
2019-02-27T09:19:32.876Z,68.80
2019-02-27T09:22:02.390Z,68.60
2019-02-27T09:24:30.494Z,68.40
2019-02-27T09:26:58.655Z,68.30
2019-02-27T09:29:26.619Z,67.80
2019-02-27T09:31:54.580Z,67.60
2019-02-27T09:34:26.615Z,66.70
2019-02-27T09:36:52.235Z,67.20
2019-02-27T09:39:22.076Z,67.60
2019-02-27T09:41:51.226Z,67.40
2019-02-27T09:44:19.336Z,67.90
2019-02-27T09:46:49.836Z,67.30
2019-02-27T09:49:16.999Z,65.50
2019-02-27T09:51:44.936Z,64.90
2019-02-27T09:54:13.317Z,64.20
2019-02-27T09:56:41.782Z,65.80
2019-02-27T09:59:09.735Z,65.70
2019-02-27T10:01:37.904Z,66.30
2019-02-27T10:04:05.997Z,65.60
2019-02-27T10:06:33.899Z,63.00
2019-02-27T10:09:01.886Z,63.00
2019-02-27T10:11:29.849Z,60.60
2019-02-27T10:13:57.860Z,61.60
2019-02-27T10:16:25.802Z,60.50
2019-02-27T10:18:55.659Z,59.90
2019-02-27T10:21:23.690Z,61.30
2019-02-27T10:23:51.618Z,59.40
2019-02-27T10:26:22.074Z,60.60
2019-02-27T10:28:49.204Z,58.40
2019-02-27T10:31:17.195Z,58.00
2019-02-27T10:33:45.187Z,58.80
2019-02-27T10:36:13.153Z,58.70
2019-02-27T10:38:41.239Z,58.90
2019-02-27T10:41:09.166Z,58.10
2019-02-27T10:43:37.143Z,56.90
2019-02-27T10:46:05.162Z,55.70
2019-02-27T10:48:33.186Z,55.20
2019-02-27T10:51:01.205Z,53.70
2019-02-27T10:53:29.118Z,47.60
2019-02-27T10:55:56.974Z,46.90
2019-02-27T10:58:24.935Z,46.80
2019-02-27T11:00:52.840Z,48.80
2019-02-27T11:03:23.684Z,47.00
2019-02-27T11:05:54.091Z,47.10
2019-02-27T11:08:20.714Z,48.50
2019-02-27T11:10:48.600Z,48.00
2019-02-27T11:13:16.621Z,49.10
2019-02-27T11:15:45.571Z,46.40
2019-02-27T11:18:13.892Z,46.30
2019-02-27T11:20:42.031Z,45.80
2019-02-27T11:23:10.004Z,45.30
2019-02-27T11:25:37.972Z,44.20
2019-02-27T11:28:06.075Z,43.70
2019-02-27T11:30:36.798Z,42.80
2019-02-27T11:33:04.643Z,42.30
2019-02-27T11:35:32.722Z,42.30
2019-02-27T11:38:00.611Z,41.40
2019-02-27T11:40:28.626Z,39.30
2019-02-27T11:42:56.913Z,39.70
2019-02-27T11:45:24.974Z,39.10
2019-02-27T11:47:53.026Z,40.20
2019-02-27T11:50:21.375Z,39.50
2019-02-27T11:52:49.886Z,37.60
2019-02-27T11:55:17.805Z,38.60
2019-02-27T11:57:45.826Z,38.60
2019-02-27T12:00:17.923Z,38.90
2019-02-27T12:02:47.502Z,38.40
2019-02-27T12:05:16.141Z,38.70
2019-02-27T12:07:44.129Z,37.30
2019-02-27T12:10:15.077Z,38.00
2019-02-27T12:12:43.633Z,37.90
2019-02-27T12:15:43.646Z,37.20
2019-02-27T12:18:10.483Z,36.80
2019-02-27T12:20:38.523Z,37.40
2019-02-27T12:23:07.521Z,37.60
2019-02-27T12:25:36.391Z,37.30
2019-02-27T12:28:05.702Z,35.90
2019-02-27T12:30:37.194Z,35.90
2019-02-27T12:33:04.274Z,36.00
2019-02-27T12:35:32.179Z,36.30
2019-02-27T12:38:00.155Z,37.00
2019-02-27T12:40:28.315Z,36.90
2019-02-27T12:42:56.391Z,36.60
2019-02-27T12:45:25.745Z,37.10
2019-02-27T12:47:54.514Z,37.40
2019-02-27T12:50:22.983Z,36.30
2019-02-27T12:52:50.968Z,35.90
2019-02-27T12:55:20.423Z,36.90
2019-02-27T12:57:49.601Z,37.10
2019-02-27T13:00:21.559Z,36.90
2019-02-27T13:02:49.644Z,38.10
2019-02-27T13:05:17.654Z,37.10
2019-02-27T13:07:45.614Z,35.40
2019-02-27T13:10:15.931Z,36.40
2019-02-27T13:12:44.039Z,35.50
2019-02-27T13:15:48.415Z,33.40
2019-02-27T13:18:15.126Z,33.60
2019-02-27T13:20:45.727Z,33.30
2019-02-27T13:23:12.913Z,34.60
2019-02-27T13:25:40.818Z,34.10
2019-02-27T13:28:08.750Z,34.50
2019-02-27T13:30:41.381Z,34.20
2019-02-27T13:33:07.012Z,34.60
2019-02-27T13:35:35.507Z,34.40
2019-02-27T13:38:04.098Z,34.80
2019-02-27T13:40:35.152Z,34.70
2019-02-27T13:43:01.862Z,34.80
2019-02-27T13:45:29.970Z,35.00
2019-02-27T13:47:59.096Z,33.80
2019-02-27T13:50:27.368Z,33.00
2019-02-27T13:52:55.295Z,33.60
2019-02-27T13:55:23.822Z,32.10
2019-02-27T13:57:51.865Z,32.80
2019-02-27T14:00:29.225Z,33.40
2019-02-27T14:02:57.345Z,32.80
2019-02-27T14:05:25.502Z,33.50
2019-02-27T14:07:57.113Z,34.10
2019-02-27T14:10:24.887Z,33.70
2019-02-27T14:12:52.915Z,33.20
2019-02-27T14:16:00.745Z,32.80
2019-02-27T14:18:25.404Z,31.80
2019-02-27T14:20:53.481Z,32.20
2019-02-27T14:23:21.418Z,32.10
2019-02-27T14:25:49.464Z,30.90
2019-02-27T14:28:18.325Z,30.70
2019-02-27T14:30:47.094Z,30.00
2019-02-27T14:33:14.943Z,30.20
2019-02-27T14:35:43.310Z,29.60
2019-02-27T14:38:11.264Z,29.20
2019-02-27T14:40:41.271Z,29.20
2019-02-27T14:43:09.016Z,29.20
2019-02-27T14:45:40.092Z,27.70
2019-02-27T14:48:07.136Z,28.10
2019-02-27T14:50:35.172Z,28.60
2019-02-27T14:53:03.235Z,28.80
2019-02-27T14:55:31.285Z,28.80
2019-02-27T14:57:59.322Z,28.20
2019-02-27T15:00:28.795Z,28.20
2019-02-27T15:02:56.898Z,28.20
2019-02-27T15:05:24.834Z,28.70
2019-02-27T15:07:54.614Z,29.00
2019-02-27T15:10:22.809Z,29.30
2019-02-27T15:12:53.935Z,28.60
2019-02-27T15:16:06.976Z,27.90
2019-02-27T15:18:32.951Z,28.20
2019-02-27T15:21:01.002Z,28.00
2019-02-27T15:23:29.011Z,28.50
2019-02-27T15:25:56.918Z,28.30
2019-02-27T15:28:24.815Z,28.60
2019-02-27T15:30:52.767Z,29.00
2019-02-27T15:33:20.703Z,28.80
2019-02-27T15:35:48.698Z,28.90
2019-02-27T15:38:16.831Z,29.00
2019-02-27T15:40:45.274Z,29.10
2019-02-27T15:43:16.987Z,29.70
2019-02-27T15:45:48.102Z,30.00
2019-02-27T15:48:12.817Z,30.00
2019-02-27T15:50:40.746Z,30.40
2019-02-27T15:53:08.743Z,30.50
2019-02-27T15:55:37.913Z,30.40
2019-02-27T15:58:06.051Z,30.10
2019-02-27T16:00:34.278Z,30.50
2019-02-27T16:03:02.315Z,29.60
2019-02-27T16:05:31.607Z,29.80
2019-02-27T16:07:59.828Z,30.10
2019-02-27T16:10:27.930Z,30.90
2019-02-27T16:12:59.580Z,32.10
2019-02-27T16:15:59.965Z,32.90
2019-02-27T16:18:27.166Z,31.90
2019-02-27T16:20:55.599Z,32.30
2019-02-27T16:23:23.503Z,33.20
2019-02-27T16:25:54.144Z,34.20
2019-02-27T16:28:21.250Z,34.10
2019-02-27T16:30:49.267Z,36.20
2019-02-27T16:33:23.159Z,36.70
2019-02-27T16:35:46.944Z,36.70
2019-02-27T16:38:14.822Z,37.00
2019-02-27T16:40:42.987Z,38.10
2019-02-27T16:43:13.564Z,38.70
2019-02-27T16:45:40.588Z,39.20
2019-02-27T16:48:08.589Z,39.80
2019-02-27T16:50:36.488Z,40.20
2019-02-27T16:53:04.401Z,40.70
2019-02-27T16:55:35.896Z,40.70
2019-02-27T16:58:02.191Z,40.90
2019-02-27T17:00:30.268Z,41.00
2019-02-27T17:02:58.350Z,41.30
2019-02-27T17:05:26.355Z,41.20
2019-02-27T17:07:57.371Z,41.30
2019-02-27T17:10:26.099Z,41.10
2019-02-27T17:12:54.610Z,41.10
2019-02-27T17:16:00.343Z,41.60
2019-02-27T17:18:28.488Z,41.20
2019-02-27T17:20:56.939Z,40.30
2019-02-27T17:23:25.143Z,40.60
2019-02-27T17:25:53.033Z,41.10
2019-02-27T17:28:20.963Z,41.00
2019-02-27T17:30:48.938Z,41.40
2019-02-27T17:33:16.844Z,41.40
2019-02-27T17:35:44.803Z,41.40
2019-02-27T17:38:13.811Z,41.60
2019-02-27T17:40:42.620Z,41.20
2019-02-27T17:43:10.546Z,41.20
2019-02-27T17:45:38.431Z,41.50
2019-02-27T17:48:09.255Z,41.50
2019-02-27T17:50:36.232Z,41.20
2019-02-27T17:53:04.609Z,40.60
2019-02-27T17:55:32.426Z,40.70
2019-02-27T17:58:00.504Z,40.40
2019-02-27T18:00:33.207Z,40.40
2019-02-27T18:03:01.186Z,40.10
2019-02-27T18:05:29.029Z,40.00
2019-02-27T18:07:57.106Z,39.70
2019-02-27T18:10:25.154Z,39.30
2019-02-27T18:12:53.206Z,39.00
2019-02-27T18:16:03.538Z,39.30
2019-02-27T18:18:29.628Z,39.00
2019-02-27T18:20:59.450Z,38.80
2019-02-27T18:23:27.905Z,38.60
2019-02-27T18:25:55.795Z,38.50
2019-02-27T18:28:23.732Z,38.70
2019-02-27T18:30:53.044Z,39.10
2019-02-27T18:33:21.575Z,38.60
2019-02-27T18:35:49.699Z,38.30
2019-02-27T18:38:17.730Z,37.80
2019-02-27T18:40:45.620Z,37.60
2019-02-27T18:43:14.136Z,37.80
2019-02-27T18:45:42.292Z,37.90
2019-02-27T18:48:10.794Z,37.90
2019-02-27T18:50:38.714Z,38.20
2019-02-27T18:53:07.529Z,38.90
2019-02-27T18:55:35.446Z,39.00
2019-02-27T18:58:03.466Z,38.50
2019-02-27T19:00:33.414Z,38.70
2019-02-27T19:03:01.242Z,39.30
2019-02-27T19:05:29.295Z,39.70
2019-02-27T19:07:57.479Z,39.40
2019-02-27T19:10:25.743Z,40.00
2019-02-27T19:12:53.874Z,40.60
2019-02-27T19:16:04.400Z,40.50
2019-02-27T19:18:30.735Z,40.20
2019-02-27T19:20:59.245Z,38.70
2019-02-27T19:23:28.443Z,38.90
2019-02-27T19:25:56.371Z,38.90
2019-02-27T19:28:25.534Z,39.30
2019-02-27T19:30:54.006Z,39.50
2019-02-27T19:33:22.128Z,40.00
2019-02-27T19:35:55.957Z,40.00
2019-02-27T19:38:20.376Z,39.60
2019-02-27T19:40:48.574Z,39.40
2019-02-27T19:43:18.167Z,39.20
2019-02-27T19:45:48.842Z,39.70
2019-02-27T19:48:17.170Z,39.50
2019-02-27T19:50:46.528Z,39.50
2019-02-27T19:53:15.097Z,39.60
2019-02-27T19:55:43.747Z,38.80
2019-02-27T19:58:17.118Z,39.00
2019-02-27T20:00:48.487Z,39.50
2019-02-27T20:03:14.054Z,39.90
2019-02-27T20:05:42.831Z,39.90
2019-02-27T20:08:13.414Z,40.10
2019-02-27T20:10:44.096Z,40.20
2019-02-27T20:13:13.049Z,40.10
2019-02-27T20:16:22.628Z,40.30
2019-02-27T20:18:54.826Z,40.60
2019-02-27T20:21:20.270Z,41.00
2019-02-27T20:23:49.034Z,41.40
2019-02-27T20:26:21.014Z,42.00
2019-02-27T20:28:48.275Z,42.40
2019-02-27T20:31:20.170Z,42.60
2019-02-27T20:33:47.523Z,42.60
2019-02-27T20:36:16.171Z,42.80
2019-02-27T20:38:47.435Z,42.90
2019-02-27T20:41:16.574Z,43.00
2019-02-27T20:43:45.239Z,43.50
2019-02-27T20:46:14.666Z,44.20
2019-02-27T20:48:43.988Z,44.70
2019-02-27T20:51:12.475Z,44.70
2019-02-27T20:53:40.829Z,44.70
2019-02-27T20:56:09.259Z,44.30
2019-02-27T20:58:37.987Z,44.50
2019-02-27T21:01:09.925Z,45.10
2019-02-27T21:03:36.843Z,45.40
2019-02-27T21:06:04.919Z,46.00
2019-02-27T21:08:33.353Z,46.10
2019-02-27T21:11:02.903Z,45.70
2019-02-27T21:13:30.830Z,45.50
2019-02-27T21:16:47.947Z,45.70
2019-02-27T21:19:13.657Z,44.80
2019-02-27T21:21:41.507Z,44.70
2019-02-27T21:24:09.595Z,45.00
2019-02-27T21:27:11.502Z,45.50
2019-02-27T21:29:40.182Z,45.90
2019-02-27T21:32:08.525Z,45.80
2019-02-27T21:34:36.619Z,46.30
2019-02-27T21:37:07.225Z,46.60
2019-02-27T21:39:34.995Z,46.50
2019-02-27T21:42:03.144Z,46.60
2019-02-27T21:44:31.113Z,46.40
2019-02-27T21:46:58.966Z,46.50
2019-02-27T21:49:31.600Z,47.00
2019-02-27T21:51:56.627Z,47.30
2019-02-27T21:54:24.581Z,47.70
2019-02-27T21:56:52.574Z,48.10
2019-02-27T21:59:20.444Z,48.20
2019-02-27T22:01:49.049Z,48.10
2019-02-27T22:04:17.149Z,48.20
2019-02-27T22:06:45.099Z,48.30
2019-02-27T22:09:13.554Z,48.30
2019-02-27T22:11:42.700Z,48.70
2019-02-27T22:14:16.597Z,49.10
2019-02-27T22:16:58.269Z,50.50
2019-02-27T22:19:26.243Z,50.00
2019-02-27T22:21:54.119Z,50.30
2019-02-27T22:24:22.308Z,50.80
2019-02-27T22:26:50.214Z,50.70
2019-02-27T22:29:18.202Z,50.60
2019-02-27T22:31:46.200Z,50.60
2019-02-27T22:34:14.583Z,50.70
2019-02-27T22:36:44.047Z,50.60
2019-02-27T22:39:12.247Z,50.60
2019-02-27T22:41:41.526Z,50.70
2019-02-27T22:44:09.603Z,50.60
2019-02-27T22:46:38.750Z,50.90
2019-02-27T22:49:06.638Z,51.00
2019-02-27T22:51:34.579Z,51.30
2019-02-27T22:54:03.134Z,51.50
2019-02-27T22:56:31.240Z,51.70
2019-02-27T22:58:59.398Z,51.70
2019-02-27T23:01:40.133Z,51.90
2019-02-27T23:04:08.620Z,51.60
2019-02-27T23:06:38.003Z,51.70
2019-02-27T23:09:09.948Z,51.80
2019-02-27T23:11:39.617Z,51.90
2019-02-27T23:14:08.280Z,52.00
2019-02-27T23:16:36.216Z,51.90
2019-02-27T23:19:04.367Z,51.80
2019-02-27T23:21:32.510Z,51.50
2019-02-27T23:24:00.521Z,51.70
2019-02-27T23:26:28.433Z,51.80
2019-02-27T23:28:56.500Z,51.70
2019-02-27T23:31:24.358Z,52.00
2019-02-27T23:33:52.263Z,53.10
2019-02-27T23:36:22.038Z,52.60
2019-02-27T23:38:49.960Z,53.00
2019-02-27T23:41:22.772Z,53.00
2019-02-27T23:43:47.616Z,52.90
2019-02-27T23:46:15.658Z,52.80
2019-02-27T23:48:45.594Z,53.10
2019-02-27T23:51:16.678Z,53.20
2019-02-27T23:53:43.567Z,53.50
2019-02-27T23:56:11.690Z,53.50
2019-02-27T23:58:39.584Z,53.40
